createdAt,value
2019-04-27T00:01:23.374Z,25.73
2019-04-27T00:04:16.207Z,28.50
2019-04-27T00:06:46.552Z,32.60
2019-04-27T00:09:30.011Z,34.10
2019-04-27T00:12:05.730Z,26.10
2019-04-27T00:14:35.461Z,31.07
2019-04-27T00:17:45.764Z,31.10
2019-04-27T00:20:26.687Z,28.93
2019-04-27T00:22:59.327Z,30.40
2019-04-27T00:25:28.939Z,27.37
2019-04-27T00:27:58.412Z,34.37
2019-04-27T00:30:27.937Z,29.47
2019-04-27T00:32:59.206Z,23.50
2019-04-27T00:35:34.940Z,24.87
2019-04-27T00:38:18.348Z,30.80
2019-04-27T00:41:06.745Z,32.83
2019-04-27T00:43:36.234Z,36.97
2019-04-27T00:46:05.819Z,27.53
2019-04-27T00:48:35.292Z,28.17
2019-04-27T00:51:04.772Z,29.17
2019-04-27T00:53:34.283Z,31.73
2019-04-27T00:56:23.585Z,32.23
2019-04-27T00:59:13.649Z,28.50
2019-04-27T01:01:56.113Z,26.30
2019-04-27T01:04:28.127Z,34.00
2019-04-27T01:06:57.600Z,25.70
2019-04-27T01:09:27.511Z,30.80
2019-04-27T01:11:56.984Z,30.17
2019-04-27T01:14:26.503Z,23.13
2019-04-27T01:16:55.994Z,27.77
2019-04-27T01:19:25.503Z,28.10
2019-04-27T01:21:55.005Z,27.20
2019-04-27T01:24:24.465Z,32.03
2019-04-27T01:27:16.092Z,27.00
2019-04-27T01:29:45.581Z,23.90
2019-04-27T01:32:16.225Z,29.43
2019-04-27T01:34:45.712Z,27.70
2019-04-27T01:37:15.215Z,29.63
2019-04-27T01:39:44.686Z,30.93
2019-04-27T01:42:14.198Z,34.37
2019-04-27T01:44:43.679Z,28.73
2019-04-27T01:47:13.167Z,27.80
2019-04-27T01:49:42.647Z,34.43
2019-04-27T01:52:12.124Z,32.47
2019-04-27T01:54:41.602Z,30.60
2019-04-27T01:57:11.166Z,28.93
2019-04-27T01:59:40.647Z,25.70
2019-04-27T02:02:47.289Z,22.77
2019-04-27T02:05:39.838Z,34.60
2019-04-27T02:08:09.549Z,25.03
2019-04-27T02:10:39.627Z,26.60
2019-04-27T02:13:09.227Z,33.27
2019-04-27T02:15:39.587Z,26.00
2019-04-27T02:18:09.531Z,31.47
2019-04-27T02:20:39.181Z,29.63
2019-04-27T02:23:09.225Z,35.47
2019-04-27T02:25:39.682Z,27.47
2019-04-27T02:28:31.197Z,29.30
2019-04-27T02:31:29.766Z,39.23
2019-04-27T02:34:24.031Z,34.63
2019-04-27T02:36:53.559Z,33.33
2019-04-27T02:39:23.037Z,34.03
2019-04-27T02:41:52.607Z,36.60
2019-04-27T02:44:36.772Z,33.73
2019-04-27T02:47:06.409Z,28.50
2019-04-27T02:49:35.904Z,27.77
2019-04-27T02:52:30.086Z,29.87
2019-04-27T02:54:59.717Z,27.20
2019-04-27T02:57:30.110Z,31.03
2019-04-27T03:00:00.198Z,29.90
2019-04-27T03:02:39.506Z,24.40
2019-04-27T03:05:12.872Z,34.17
2019-04-27T03:07:42.749Z,30.63
2019-04-27T03:10:11.413Z,29.67
2019-04-27T03:12:46.104Z,31.13
2019-04-27T03:15:33.496Z,35.83
2019-04-27T03:18:09.879Z,32.03
2019-04-27T03:20:52.918Z,27.53
2019-04-27T03:23:22.460Z,31.57
2019-04-27T03:26:02.284Z,25.13
2019-04-27T03:28:31.769Z,29.17
2019-04-27T03:31:02.484Z,32.70
2019-04-27T03:33:33.047Z,28.47
2019-04-27T03:36:03.327Z,28.27
2019-04-27T03:38:32.966Z,31.87
2019-04-27T03:41:02.487Z,32.97
2019-04-27T03:43:31.970Z,33.37
2019-04-27T03:46:01.551Z,28.13
2019-04-27T03:48:31.024Z,36.47
2019-04-27T03:51:20.029Z,33.20
2019-04-27T03:54:00.200Z,27.70
2019-04-27T03:56:47.307Z,28.93
2019-04-27T03:59:23.391Z,27.20
2019-04-27T04:01:52.899Z,33.03
2019-04-27T04:04:22.406Z,31.17
2019-04-27T04:06:51.921Z,21.30
2019-04-27T04:09:29.629Z,27.90
2019-04-27T04:12:09.597Z,33.80
2019-04-27T04:14:42.441Z,25.70
2019-04-27T04:17:12.882Z,29.10
2019-04-27T04:19:53.896Z,32.30
2019-04-27T04:22:13.856Z,24.50
2019-04-27T04:24:43.335Z,27.53
2019-04-27T04:27:12.833Z,32.53
2019-04-27T04:29:42.323Z,25.33
2019-04-27T04:32:11.815Z,35.13
2019-04-27T04:34:41.286Z,40.37
2019-04-27T04:37:10.777Z,34.73
2019-04-27T04:39:40.722Z,38.67
2019-04-27T04:42:29.963Z,27.80
2019-04-27T04:45:20.259Z,30.37
2019-04-27T04:47:54.238Z,22.63
2019-04-27T04:50:23.702Z,30.63
2019-04-27T04:52:53.179Z,28.70
2019-04-27T04:55:22.666Z,29.10
2019-04-27T04:57:52.157Z,26.20
2019-04-27T05:00:21.687Z,29.43
2019-04-27T05:02:51.173Z,33.10
2019-04-27T05:05:20.706Z,24.60
2019-04-27T05:07:50.213Z,32.57
2019-04-27T05:10:19.715Z,35.00
2019-04-27T05:12:50.454Z,29.07
2019-04-27T05:15:20.757Z,25.47
2019-04-27T05:17:51.052Z,29.77
2019-04-27T05:20:51.887Z,27.43
2019-04-27T05:23:21.384Z,41.37
2019-04-27T05:25:50.890Z,30.03
2019-04-27T05:28:20.346Z,34.80
2019-04-27T05:30:49.863Z,28.30
2019-04-27T05:33:19.363Z,30.27
2019-04-27T05:35:49.273Z,28.93
2019-04-27T05:38:19.460Z,30.33
2019-04-27T05:40:49.903Z,30.77
2019-04-27T05:43:25.543Z,33.60
2019-04-27T05:46:39.636Z,32.10
2019-04-27T05:49:13.797Z,30.70
2019-04-27T05:51:43.231Z,38.20
2019-04-27T05:54:12.712Z,35.67
2019-04-27T05:56:42.213Z,31.17
2019-04-27T05:59:14.551Z,32.43
2019-04-27T06:01:42.921Z,24.97
2019-04-27T06:04:12.503Z,28.87
2019-04-27T06:06:41.961Z,29.50
2019-04-27T06:09:11.438Z,32.10
2019-04-27T06:11:40.930Z,28.57
2019-04-27T06:14:10.419Z,31.63
2019-04-27T06:16:39.880Z,34.77
2019-04-27T06:19:09.709Z,25.37
2019-04-27T06:21:40.108Z,32.13
2019-04-27T06:24:09.944Z,25.33
2019-04-27T06:26:40.119Z,27.77
2019-04-27T06:29:09.693Z,29.00
2019-04-27T06:31:39.790Z,29.43
2019-04-27T06:34:09.923Z,35.53
2019-04-27T06:36:39.566Z,30.87
2019-04-27T06:39:10.050Z,40.50
2019-04-27T06:41:40.137Z,34.67
2019-04-27T06:44:11.423Z,30.77
2019-04-27T06:46:41.249Z,36.47
2019-04-27T06:49:11.373Z,35.93
2019-04-27T06:51:40.888Z,33.57
2019-04-27T06:54:10.385Z,33.10
2019-04-27T06:56:39.891Z,34.80
2019-04-27T06:59:09.496Z,25.50
2019-04-27T07:01:39.161Z,29.90
2019-04-27T07:04:10.793Z,27.37
2019-04-27T07:06:52.807Z,31.43
2019-04-27T07:09:11.616Z,41.03
2019-04-27T07:11:41.128Z,35.73
2019-04-27T07:14:11.611Z,25.40
2019-04-27T07:16:41.370Z,31.17
2019-04-27T07:19:10.879Z,23.67
2019-04-27T07:21:40.426Z,34.80
2019-04-27T07:24:09.929Z,28.63
2019-04-27T07:26:39.586Z,25.67
2019-04-27T07:29:09.711Z,29.57
2019-04-27T07:31:40.097Z,26.20
2019-04-27T07:34:09.803Z,35.63
2019-04-27T07:36:39.513Z,25.77
2019-04-27T07:39:11.626Z,39.10
2019-04-27T07:41:41.216Z,30.07
2019-04-27T07:44:29.662Z,33.10
2019-04-27T07:47:19.641Z,31.63
2019-04-27T07:49:49.771Z,23.93
2019-04-27T07:52:20.587Z,28.77
2019-04-27T07:54:50.255Z,27.73
2019-04-27T07:57:20.032Z,24.93
2019-04-27T07:59:50.342Z,29.00
2019-04-27T08:02:19.940Z,32.57
2019-04-27T08:04:50.526Z,31.80
2019-04-27T08:07:20.142Z,32.93
2019-04-27T08:09:49.903Z,24.60
2019-04-27T08:12:20.906Z,30.90
2019-04-27T08:14:50.567Z,28.70
2019-04-27T08:17:20.150Z,32.37
2019-04-27T08:19:49.882Z,27.53
2019-04-27T08:22:19.681Z,27.57
2019-04-27T08:24:49.829Z,25.90
2019-04-27T08:27:40.776Z,29.83
2019-04-27T08:30:22.026Z,28.73
2019-04-27T08:32:52.045Z,35.57
2019-04-27T08:35:22.011Z,25.93
2019-04-27T08:37:52.208Z,28.33
2019-04-27T08:40:22.002Z,27.40
2019-04-27T08:42:51.588Z,26.23
2019-04-27T08:45:21.238Z,34.60
2019-04-27T08:47:50.776Z,22.40
2019-04-27T08:50:20.313Z,28.23
2019-04-27T08:52:50.357Z,25.63
2019-04-27T08:55:19.992Z,33.30
2019-04-27T08:57:49.565Z,27.43
2019-04-27T09:00:20.085Z,26.57
2019-04-27T09:02:50.440Z,22.23
2019-04-27T09:05:25.764Z,27.80
2019-04-27T09:08:19.196Z,33.00
2019-04-27T09:11:10.569Z,27.10
2019-04-27T09:14:04.851Z,33.27
2019-04-27T09:16:43.446Z,29.97
2019-04-27T09:19:22.175Z,30.57
2019-04-27T09:22:13.594Z,29.83
2019-04-27T09:24:37.049Z,23.23
2019-04-27T09:27:06.972Z,28.63
2019-04-27T09:29:36.532Z,29.80
2019-04-27T09:32:06.337Z,30.93
2019-04-27T09:34:36.674Z,28.50
2019-04-27T09:37:06.352Z,31.13
2019-04-27T09:39:35.988Z,30.80
2019-04-27T09:42:06.492Z,26.33
2019-04-27T09:44:37.049Z,27.17
2019-04-27T09:47:06.763Z,24.73
2019-04-27T09:49:38.224Z,34.60
2019-04-27T09:52:07.503Z,30.13
2019-04-27T09:54:37.078Z,29.03
2019-04-27T09:57:07.146Z,29.83
2019-04-27T09:59:39.340Z,30.27
2019-04-27T10:02:08.716Z,31.33
2019-04-27T10:04:38.430Z,32.33
2019-04-27T10:07:07.923Z,26.73
2019-04-27T10:09:37.470Z,29.57
2019-04-27T10:12:07.787Z,25.83
2019-04-27T10:14:37.413Z,33.10
2019-04-27T10:17:06.915Z,24.27
2019-04-27T10:19:36.688Z,38.47
2019-04-27T10:22:06.460Z,26.20
2019-04-27T10:24:35.992Z,29.17
2019-04-27T10:27:07.945Z,23.53
2019-04-27T10:29:37.616Z,28.30
2019-04-27T10:32:07.225Z,31.70
2019-04-27T10:34:36.726Z,27.53
2019-04-27T10:37:06.271Z,24.30
2019-04-27T10:39:36.219Z,27.03
2019-04-27T10:42:06.803Z,32.07
2019-04-27T10:44:36.433Z,29.37
2019-04-27T10:47:06.083Z,25.93
2019-04-27T10:49:35.674Z,23.93
2019-04-27T10:52:05.899Z,28.17
2019-04-27T10:54:35.507Z,28.13
2019-04-27T10:57:06.075Z,25.30
2019-04-27T10:59:36.157Z,21.40
2019-04-27T11:02:05.787Z,31.63
2019-04-27T11:04:59.263Z,22.67
2019-04-27T11:07:32.988Z,23.30
2019-04-27T11:10:02.492Z,31.07
2019-04-27T11:12:32.028Z,30.30
2019-04-27T11:15:01.660Z,23.23
2019-04-27T11:17:31.155Z,31.70
2019-04-27T11:20:02.767Z,37.07
2019-04-27T11:22:31.890Z,31.30
2019-04-27T11:25:01.399Z,27.80
2019-04-27T11:27:30.910Z,34.90
2019-04-27T11:30:01.009Z,28.70
2019-04-27T11:32:30.495Z,21.40
2019-04-27T11:35:30.216Z,25.90
2019-04-27T11:38:00.025Z,23.70
2019-04-27T11:40:30.425Z,26.90
2019-04-27T11:42:59.919Z,24.87
2019-04-27T11:45:29.432Z,25.37
2019-04-27T11:47:58.953Z,16.60
2019-04-27T11:50:28.571Z,20.07
2019-04-27T11:52:58.039Z,26.73
2019-04-27T11:55:27.528Z,20.40
2019-04-27T11:57:57.016Z,25.33
2019-04-27T12:00:27.741Z,19.90
2019-04-27T12:02:57.354Z,17.10
2019-04-27T12:05:26.871Z,22.80
2019-04-27T12:07:56.400Z,21.13
2019-04-27T12:10:26.386Z,16.33
2019-04-27T12:12:56.383Z,17.40
2019-04-27T12:15:26.403Z,13.97
2019-04-27T12:17:56.342Z,20.23
2019-04-27T12:20:26.063Z,18.53
2019-04-27T12:22:55.515Z,14.13
2019-04-27T12:25:24.997Z,21.27
2019-04-27T12:28:10.022Z,24.13
2019-04-27T12:31:09.078Z,23.43
2019-04-27T12:33:38.829Z,22.83
2019-04-27T12:36:08.401Z,32.50
2019-04-27T12:38:37.908Z,21.30
2019-04-27T12:41:07.400Z,25.93
2019-04-27T12:43:37.490Z,23.40
2019-04-27T12:46:07.255Z,24.57
2019-04-27T12:48:38.027Z,23.07
2019-04-27T12:51:07.616Z,24.53
2019-04-27T12:54:05.953Z,23.10
2019-04-27T12:56:55.872Z,16.00
2019-04-27T12:59:44.233Z,27.70
2019-04-27T13:02:13.875Z,21.17
2019-04-27T13:04:43.352Z,25.03
2019-04-27T13:07:12.829Z,21.10
2019-04-27T13:09:42.325Z,25.53
2019-04-27T13:12:11.863Z,21.63
2019-04-27T13:14:41.369Z,23.93
2019-04-27T13:17:10.884Z,22.93
2019-04-27T13:19:42.585Z,22.77
2019-04-27T13:22:12.176Z,24.40
2019-04-27T13:24:41.637Z,32.00
2019-04-27T13:27:11.219Z,24.43
2019-04-27T13:29:40.770Z,30.40
2019-04-27T13:32:10.257Z,34.83
2019-04-27T13:34:39.718Z,23.07
2019-04-27T13:37:34.190Z,27.43
2019-04-27T13:40:09.236Z,25.13
2019-04-27T13:42:39.097Z,18.57
2019-04-27T13:45:13.667Z,25.40
2019-04-27T13:47:56.239Z,22.60
2019-04-27T13:50:32.051Z,27.00
2019-04-27T13:53:01.560Z,23.07
2019-04-27T13:55:31.423Z,21.83
2019-04-27T13:58:00.894Z,27.90
2019-04-27T14:00:30.367Z,21.53
2019-04-27T14:02:59.864Z,21.97
2019-04-27T14:05:29.369Z,27.67
2019-04-27T14:07:59.214Z,22.90
2019-04-27T14:10:28.771Z,23.23
2019-04-27T14:12:59.060Z,17.63
2019-04-27T14:15:28.958Z,29.60
2019-04-27T14:17:59.207Z,24.47
2019-04-27T14:20:28.839Z,18.23
2019-04-27T14:23:12.806Z,21.17
2019-04-27T14:25:42.308Z,19.73
2019-04-27T14:28:11.786Z,19.80
2019-04-27T14:30:41.250Z,22.17
2019-04-27T14:33:10.755Z,23.43
2019-04-27T14:35:40.265Z,25.53
2019-04-27T14:38:09.748Z,25.40
2019-04-27T14:40:39.311Z,22.00
2019-04-27T14:43:08.842Z,25.97
2019-04-27T14:45:39.773Z,30.50
2019-04-27T14:48:09.309Z,19.87
2019-04-27T14:50:40.513Z,17.63
2019-04-27T14:53:10.083Z,30.63
2019-04-27T14:55:39.569Z,16.93
2019-04-27T14:58:09.040Z,24.13
2019-04-27T15:00:38.586Z,19.90
2019-04-27T15:03:08.088Z,14.67
2019-04-27T15:05:37.581Z,19.47
2019-04-27T15:08:09.735Z,9.57
2019-04-27T15:10:38.276Z,14.80
2019-04-27T15:13:08.378Z,14.27
2019-04-27T15:15:38.270Z,12.43
2019-04-27T15:18:09.589Z,8.93
2019-04-27T15:20:44.549Z,12.97
2019-04-27T15:23:14.033Z,11.63
2019-04-27T15:25:46.793Z,10.37
2019-04-27T15:28:17.522Z,14.87
2019-04-27T15:31:05.954Z,10.63
2019-04-27T15:33:54.691Z,8.93
2019-04-27T15:36:43.360Z,11.30
2019-04-27T15:39:22.437Z,13.87
2019-04-27T15:41:54.797Z,10.27
2019-04-27T15:44:24.388Z,10.73
2019-04-27T15:46:53.854Z,9.37
2019-04-27T15:49:23.362Z,11.23
2019-04-27T15:51:54.796Z,7.27
2019-04-27T15:54:29.029Z,9.97
2019-04-27T15:56:55.495Z,10.27
2019-04-27T15:59:31.052Z,9.70
2019-04-27T16:01:59.543Z,7.63
2019-04-27T16:04:29.147Z,9.50
2019-04-27T16:07:00.585Z,7.97
2019-04-27T16:09:29.977Z,12.20
2019-04-27T16:12:09.947Z,11.87
2019-04-27T16:14:30.847Z,9.70
2019-04-27T16:17:03.107Z,9.80
2019-04-27T16:19:31.715Z,14.43
2019-04-27T16:22:01.246Z,9.77
2019-04-27T16:24:30.802Z,12.60
2019-04-27T16:27:00.323Z,9.90
2019-04-27T16:29:31.645Z,13.67
2019-04-27T16:32:02.811Z,11.07
2019-04-27T16:34:33.121Z,11.53
2019-04-27T16:37:03.977Z,11.10
2019-04-27T16:39:33.465Z,14.30
2019-04-27T16:42:03.010Z,12.47
2019-04-27T16:44:32.544Z,10.13
2019-04-27T16:47:02.033Z,10.20
2019-04-27T16:49:31.564Z,10.93
2019-04-27T16:52:01.070Z,14.77
2019-04-27T16:54:30.651Z,11.13
2019-04-27T16:57:05.216Z,13.80
2019-04-27T16:59:43.083Z,14.90
2019-04-27T17:02:02.806Z,17.13
2019-04-27T17:04:32.405Z,14.77
2019-04-27T17:07:01.980Z,12.80
2019-04-27T17:09:36.211Z,14.27
2019-04-27T17:12:02.950Z,13.83
2019-04-27T17:14:46.449Z,16.43
2019-04-27T17:17:33.084Z,11.47
2019-04-27T17:20:03.855Z,11.83
2019-04-27T17:22:33.359Z,14.50
2019-04-27T17:25:02.879Z,13.93
2019-04-27T17:27:38.435Z,10.90
2019-04-27T17:30:09.070Z,13.13
2019-04-27T17:32:56.204Z,11.93
2019-04-27T17:35:25.700Z,14.77
2019-04-27T17:37:55.237Z,13.10
2019-04-27T17:40:24.719Z,13.03
2019-04-27T17:42:54.174Z,15.07
2019-04-27T17:45:23.761Z,13.83
2019-04-27T17:47:53.382Z,12.23
2019-04-27T17:50:25.125Z,15.13
2019-04-27T17:52:55.319Z,12.67
2019-04-27T17:55:25.631Z,12.93
2019-04-27T17:57:58.938Z,12.00
2019-04-27T18:00:28.107Z,14.70
2019-04-27T18:02:58.019Z,12.87
2019-04-27T18:05:28.557Z,12.33
2019-04-27T18:07:58.216Z,12.73
2019-04-27T18:10:28.261Z,11.37
2019-04-27T18:12:58.258Z,14.60
2019-04-27T18:15:28.719Z,13.00
2019-04-27T18:18:01.150Z,8.23
2019-04-27T18:20:30.612Z,13.10
2019-04-27T18:23:14.740Z,11.13
2019-04-27T18:25:44.155Z,14.67
2019-04-27T18:28:18.960Z,17.43
2019-04-27T18:31:07.538Z,15.27
2019-04-27T18:33:38.713Z,12.60
2019-04-27T18:36:13.778Z,14.57
2019-04-27T18:38:39.457Z,13.20
2019-04-27T18:41:11.799Z,18.03
2019-04-27T18:43:46.453Z,14.70
2019-04-27T18:46:14.961Z,14.23
2019-04-27T18:49:01.667Z,13.90
2019-04-27T18:51:48.788Z,18.33
2019-04-27T18:54:18.492Z,11.93
2019-04-27T18:57:01.474Z,12.67
2019-04-27T18:59:19.151Z,13.73
2019-04-27T19:01:49.001Z,15.77
2019-04-27T19:04:19.015Z,13.73
2019-04-27T19:06:48.555Z,16.63
2019-04-27T19:09:18.733Z,17.33
2019-04-27T19:11:56.136Z,17.43
2019-04-27T19:14:19.500Z,18.07
2019-04-27T19:16:49.028Z,20.37
2019-04-27T19:19:19.014Z,18.63
2019-04-27T19:21:48.771Z,19.50
2019-04-27T19:24:19.218Z,18.80
2019-04-27T19:26:55.078Z,26.57
2019-04-27T19:29:29.226Z,20.87
2019-04-27T19:32:00.630Z,16.30
2019-04-27T19:34:30.206Z,19.47
2019-04-27T19:36:59.676Z,18.03
2019-04-27T19:39:29.182Z,20.83
2019-04-27T19:42:03.036Z,17.83
2019-04-27T19:44:30.013Z,18.00
2019-04-27T19:47:00.152Z,17.43
2019-04-27T19:49:31.723Z,15.57
2019-04-27T19:52:01.091Z,15.47
2019-04-27T19:54:30.595Z,15.53
2019-04-27T19:57:00.093Z,15.50
2019-04-27T19:59:41.622Z,18.10
2019-04-27T20:02:15.064Z,17.80
2019-04-27T20:04:48.018Z,17.47
2019-04-27T20:07:18.102Z,16.80
2019-04-27T20:09:58.352Z,16.07
2019-04-27T20:12:27.965Z,17.80
2019-04-27T20:14:57.554Z,18.63
2019-04-27T20:17:31.805Z,17.67
2019-04-27T20:20:01.573Z,22.03
2019-04-27T20:22:31.210Z,19.40
2019-04-27T20:25:01.943Z,22.30
2019-04-27T20:27:45.253Z,23.20
2019-04-27T20:30:03.458Z,20.97
2019-04-27T20:32:33.063Z,22.23
2019-04-27T20:35:02.568Z,19.90
2019-04-27T20:37:32.051Z,27.27
2019-04-27T20:40:01.835Z,27.20
2019-04-27T20:42:31.785Z,27.57
2019-04-27T20:45:02.052Z,22.63
2019-04-27T20:47:32.328Z,26.13
2019-04-27T20:50:01.828Z,24.97
2019-04-27T20:52:56.362Z,24.80
2019-04-27T20:55:25.912Z,20.27
2019-04-27T20:58:01.819Z,24.03
2019-04-27T21:00:26.658Z,25.20
2019-04-27T21:03:20.766Z,26.47
2019-04-27T21:06:27.312Z,20.10
2019-04-27T21:08:56.820Z,24.13
2019-04-27T21:11:30.854Z,24.53
2019-04-27T21:14:01.005Z,26.90
2019-04-27T21:16:31.356Z,21.03
2019-04-27T21:19:02.005Z,20.50
2019-04-27T21:21:32.136Z,26.50
2019-04-27T21:24:01.677Z,24.73
2019-04-27T21:26:32.238Z,22.00
2019-04-27T21:29:01.687Z,20.77
2019-04-27T21:31:31.670Z,16.93
2019-04-27T21:34:01.228Z,21.17
2019-04-27T21:36:31.051Z,20.13
2019-04-27T21:39:01.495Z,22.90
2019-04-27T21:41:31.257Z,16.13
2019-04-27T21:44:01.413Z,21.37
2019-04-27T21:46:31.624Z,21.70
2019-04-27T21:49:02.084Z,22.13
2019-04-27T21:51:33.408Z,20.33
2019-04-27T21:54:18.434Z,20.47
2019-04-27T21:56:47.947Z,19.47
2019-04-27T21:59:17.444Z,17.33
2019-04-27T22:01:47.222Z,18.03
2019-04-27T22:04:16.697Z,15.13
2019-04-27T22:06:46.160Z,12.07
2019-04-27T22:09:15.694Z,15.00
2019-04-27T22:11:45.282Z,16.13
2019-04-27T22:14:14.797Z,13.30
2019-04-27T22:16:44.309Z,12.80
2019-04-27T22:19:13.803Z,13.00
2019-04-27T22:21:43.262Z,15.20
2019-04-27T22:24:35.234Z,9.70
2019-04-27T22:27:04.708Z,12.80
2019-04-27T22:29:34.876Z,11.63
2019-04-27T22:32:04.468Z,8.60
2019-04-27T22:34:33.925Z,9.83
2019-04-27T22:37:03.457Z,8.77
2019-04-27T22:39:39.348Z,13.37
2019-04-27T22:42:41.963Z,9.33
2019-04-27T22:45:18.986Z,9.43
2019-04-27T22:47:48.454Z,13.80
2019-04-27T22:50:17.926Z,10.20
2019-04-27T22:52:47.404Z,13.17
2019-04-27T22:55:17.002Z,12.67
2019-04-27T22:57:51.979Z,15.07
2019-04-27T23:00:43.473Z,12.70
2019-04-27T23:03:17.744Z,12.97
2019-04-27T23:05:47.213Z,11.33
2019-04-27T23:08:16.746Z,10.13
2019-04-27T23:10:46.221Z,13.33
2019-04-27T23:13:15.708Z,9.47
2019-04-27T23:15:47.584Z,9.57
2019-04-27T23:18:17.074Z,8.80
2019-04-27T23:20:46.578Z,7.27
2019-04-27T23:23:16.050Z,13.20
2019-04-27T23:25:45.583Z,17.67
2019-04-27T23:28:15.087Z,52.93
2019-04-27T23:31:02.318Z,43.17
2019-04-27T23:33:31.494Z,33.93
2019-04-27T23:36:01.535Z,55.33
2019-04-27T23:38:31.150Z,130.73
2019-04-27T23:41:01.796Z,58.63
2019-04-27T23:43:31.443Z,33.70
2019-04-27T23:46:01.680Z,41.40
2019-04-27T23:48:32.166Z,35.80
2019-04-27T23:51:11.902Z,37.77
2019-04-27T23:53:41.830Z,41.37
2019-04-27T23:56:11.364Z,39.23
2019-04-27T23:58:40.873Z,35.27
